createdAt,value
2022-08-17T00:00:43.368Z,100146.60
2022-08-17T00:03:17.678Z,100140.40
2022-08-17T00:05:52.680Z,100144.40
2022-08-17T00:08:26.424Z,100150.40
2022-08-17T00:10:55.148Z,100147.80
2022-08-17T00:13:38.070Z,100137.80
2022-08-17T00:16:22.521Z,100132.20
2022-08-17T00:19:14.400Z,100134.80
2022-08-17T00:22:14.767Z,100138.60
2022-08-17T00:24:35.003Z,100138.60
2022-08-17T00:27:03.382Z,100140.40
2022-08-17T00:29:31.192Z,100128.80
2022-08-17T00:31:58.946Z,100126.00
2022-08-17T00:34:28.008Z,100119.60
2022-08-17T00:36:55.840Z,100116.60
2022-08-17T00:39:23.670Z,100119.60
2022-08-17T00:41:51.502Z,100111.60
2022-08-17T00:44:19.579Z,100108.40
2022-08-17T00:46:48.127Z,100110.80
2022-08-17T00:49:19.623Z,100113.00
2022-08-17T00:52:04.494Z,100112.60
2022-08-17T00:54:44.929Z,100107.40
2022-08-17T00:57:19.715Z,100112.80
2022-08-17T01:00:01.718Z,100116.80
2022-08-17T01:02:42.163Z,100114.80
2022-08-17T01:05:19.584Z,100112.80
2022-08-17T01:07:52.942Z,100105.80
2022-08-17T01:11:00.335Z,100106.80
2022-08-17T01:13:27.214Z,100108.20
2022-08-17T01:16:08.281Z,100099.60
2022-08-17T01:18:37.750Z,100094.60
2022-08-17T01:21:17.614Z,100093.40
2022-08-17T01:23:45.421Z,100098.60
2022-08-17T01:26:13.742Z,100101.60
2022-08-17T01:28:53.912Z,100107.80
2022-08-17T01:31:30.552Z,100104.00
2022-08-17T01:34:02.560Z,100101.80
2022-08-17T01:36:30.694Z,100094.00
2022-08-17T01:39:00.138Z,100095.60
2022-08-17T01:41:29.131Z,100097.40
2022-08-17T01:44:04.156Z,100101.20
2022-08-17T01:46:36.972Z,100099.40
2022-08-17T01:49:11.754Z,100101.00
2022-08-17T01:51:39.852Z,100104.20
2022-08-17T01:54:13.946Z,100097.20
2022-08-17T01:56:47.317Z,100093.20
2022-08-17T01:59:18.295Z,100086.80
2022-08-17T02:01:46.942Z,100082.80
2022-08-17T02:04:16.184Z,100083.00
2022-08-17T02:06:52.603Z,100081.60
2022-08-17T02:09:29.563Z,100085.80
2022-08-17T02:12:37.829Z,100091.20
2022-08-17T02:14:52.067Z,100094.60
2022-08-17T02:17:19.888Z,100098.60
2022-08-17T02:19:47.662Z,100102.20
2022-08-17T02:22:18.203Z,100103.40
2022-08-17T02:25:00.188Z,100108.60
2022-08-17T02:27:30.174Z,100111.20
2022-08-17T02:29:58.132Z,100107.80
2022-08-17T02:32:28.675Z,100108.60
2022-08-17T02:34:57.992Z,100110.00
2022-08-17T02:37:31.380Z,100116.40
2022-08-17T02:40:00.004Z,100128.00
2022-08-17T02:42:38.913Z,100140.20
2022-08-17T02:45:22.876Z,100144.80
2022-08-17T02:47:52.111Z,100142.40
2022-08-17T02:50:24.042Z,100146.80
2022-08-17T02:53:01.837Z,100142.20
2022-08-17T02:55:40.321Z,100142.20
2022-08-17T02:58:11.600Z,100147.20
2022-08-17T03:00:48.053Z,100145.60
2022-08-17T03:03:20.385Z,100147.60
2022-08-17T03:05:53.598Z,100139.20
2022-08-17T03:08:22.435Z,100133.00
2022-08-17T03:10:50.541Z,100138.00
2022-08-17T03:13:18.872Z,100139.60
2022-08-17T03:15:48.468Z,100139.00
2022-08-17T03:18:24.735Z,100137.60
2022-08-17T03:20:57.985Z,100126.80
2022-08-17T03:23:29.641Z,100127.00
2022-08-17T03:25:59.524Z,100132.00
2022-08-17T03:28:28.279Z,100136.20
2022-08-17T03:30:56.218Z,100136.40
2022-08-17T03:33:24.103Z,100141.80
2022-08-17T03:35:52.144Z,100142.20
2022-08-17T03:38:20.005Z,100142.40
2022-08-17T03:40:56.705Z,100143.60
2022-08-17T03:43:31.038Z,100144.80
2022-08-17T03:46:39.009Z,100145.20
2022-08-17T03:49:27.279Z,100149.20
2022-08-17T03:52:16.257Z,100149.00
2022-08-17T03:55:03.947Z,100156.00
2022-08-17T03:57:32.485Z,100159.00
2022-08-17T04:00:00.398Z,100163.40
2022-08-17T04:02:32.798Z,100164.40
2022-08-17T04:05:01.043Z,100160.00
2022-08-17T04:07:31.517Z,100153.40
2022-08-17T04:10:00.534Z,100153.20
2022-08-17T04:12:42.059Z,100156.60
2022-08-17T04:15:11.773Z,100160.00
2022-08-17T04:17:39.627Z,100156.60
2022-08-17T04:20:08.415Z,100149.80
2022-08-17T04:22:36.403Z,100144.60
2022-08-17T04:25:16.386Z,100147.20
2022-08-17T04:27:44.251Z,100150.80
2022-08-17T04:30:13.436Z,100151.60
2022-08-17T04:33:10.545Z,100153.20
2022-08-17T04:36:01.279Z,100152.40
2022-08-17T04:38:34.922Z,100142.80
2022-08-17T04:41:22.649Z,100141.20
2022-08-17T04:43:56.023Z,100137.80
2022-08-17T04:46:29.353Z,100141.20
2022-08-17T04:48:57.783Z,100140.60
2022-08-17T04:51:34.587Z,100142.00
2022-08-17T04:54:07.905Z,100140.20
2022-08-17T04:56:36.136Z,100144.00
2022-08-17T04:59:21.121Z,100144.40
2022-08-17T05:01:52.091Z,100141.80
2022-08-17T05:04:34.893Z,100144.00
2022-08-17T05:07:04.606Z,100141.80
2022-08-17T05:09:32.783Z,100139.60
2022-08-17T05:12:02.528Z,100135.60
2022-08-17T05:14:33.018Z,100138.40
2022-08-17T05:17:07.408Z,100138.20
2022-08-17T05:19:39.078Z,100142.20
2022-08-17T05:22:07.022Z,100138.20
2022-08-17T05:24:42.518Z,100140.40
2022-08-17T05:27:18.826Z,100143.20
2022-08-17T05:29:47.215Z,100139.80
2022-08-17T05:32:38.000Z,100143.00
2022-08-17T05:35:03.722Z,100141.20
2022-08-17T05:37:31.507Z,100147.40
2022-08-17T05:39:59.740Z,100149.20
2022-08-17T05:42:27.545Z,100152.80
2022-08-17T05:44:58.851Z,100158.20
2022-08-17T05:47:27.613Z,100162.80
2022-08-17T05:49:55.606Z,100165.40
2022-08-17T05:53:00.988Z,100171.00
2022-08-17T05:55:50.671Z,100174.80
2022-08-17T05:58:46.586Z,100176.60
2022-08-17T06:01:37.452Z,100181.80
2022-08-17T06:04:31.010Z,100187.80
2022-08-17T06:07:25.387Z,100191.00
2022-08-17T06:10:02.020Z,100182.60
2022-08-17T06:12:50.874Z,100191.00
2022-08-17T06:15:56.246Z,100185.00
2022-08-17T06:18:34.088Z,100190.00
2022-08-17T06:21:07.532Z,100193.20
2022-08-17T06:23:41.757Z,100190.80
2022-08-17T06:26:37.321Z,100191.60
2022-08-17T06:29:47.759Z,100188.40
2022-08-17T06:32:17.171Z,100188.40
2022-08-17T06:34:46.488Z,100187.60
2022-08-17T06:37:26.768Z,100184.60
2022-08-17T06:40:37.644Z,100188.80
2022-08-17T06:43:23.366Z,100193.40
2022-08-17T06:46:07.042Z,100199.60
2022-08-17T06:48:46.972Z,100203.00
2022-08-17T06:51:39.717Z,100201.20
2022-08-17T06:54:29.543Z,100206.40
2022-08-17T06:57:17.679Z,100216.00
2022-08-17T06:59:56.748Z,100218.00
2022-08-17T07:02:52.210Z,100216.60
2022-08-17T07:06:02.967Z,100217.40
2022-08-17T07:08:54.864Z,100226.20
2022-08-17T07:12:03.463Z,100235.40
2022-08-17T07:14:55.991Z,100248.20
2022-08-17T07:17:47.203Z,100244.80
2022-08-17T07:20:22.746Z,100234.20
2022-08-17T07:23:09.072Z,100233.00
2022-08-17T07:25:36.956Z,100247.40
2022-08-17T07:28:07.777Z,100250.80
2022-08-17T07:30:47.096Z,100256.80
2022-08-17T07:33:24.583Z,100262.80
2022-08-17T07:35:53.736Z,100267.40
2022-08-17T07:38:28.662Z,100266.20
2022-08-17T07:41:02.984Z,100272.60
2022-08-17T07:43:40.237Z,100277.80
2022-08-17T07:46:44.947Z,100286.40
2022-08-17T07:49:12.707Z,100287.80
2022-08-17T07:51:43.829Z,100293.20
2022-08-17T07:54:22.510Z,100294.80
2022-08-17T07:57:29.397Z,100294.20
2022-08-17T08:00:01.118Z,100302.00
2022-08-17T08:02:38.670Z,100299.00
2022-08-17T08:05:49.416Z,100308.00
2022-08-17T08:08:42.747Z,100312.80
2022-08-17T08:11:30.058Z,100310.00
2022-08-17T08:14:28.274Z,100309.20
2022-08-17T08:17:05.892Z,100305.40
2022-08-17T08:19:34.575Z,100308.20
2022-08-17T08:22:21.184Z,100302.40
2022-08-17T08:25:21.547Z,100306.60
2022-08-17T08:28:20.086Z,100303.60
2022-08-17T08:30:58.543Z,100299.60
2022-08-17T08:33:42.781Z,100299.20
2022-08-17T08:37:14.606Z,100297.20
2022-08-17T08:40:30.983Z,100300.60
2022-08-17T08:43:39.004Z,100304.60
2022-08-17T08:46:52.908Z,100300.80
2022-08-17T08:50:02.841Z,100302.40
2022-08-17T08:53:01.823Z,100307.80
2022-08-17T08:55:45.597Z,100310.60
2022-08-17T08:58:43.585Z,100309.20
2022-08-17T09:01:55.954Z,100318.40
2022-08-17T09:05:16.084Z,100322.20
2022-08-17T09:08:12.740Z,100326.00
2022-08-17T09:11:12.604Z,100328.60
2022-08-17T09:14:28.189Z,100331.00
2022-08-17T09:17:07.834Z,100331.60
2022-08-17T09:19:48.265Z,100323.80
2022-08-17T09:23:52.056Z,100322.20
2022-08-17T09:26:31.817Z,100329.00
2022-08-17T09:29:07.410Z,100325.40
2022-08-17T09:31:49.705Z,100314.00
2022-08-17T09:34:33.448Z,100317.80
2022-08-17T09:37:19.257Z,100319.00
2022-08-17T09:40:11.932Z,100314.80
2022-08-17T09:42:50.789Z,100304.00
2022-08-17T09:45:45.238Z,100306.60
2022-08-17T09:48:27.691Z,100308.60
2022-08-17T09:51:16.610Z,100310.80
2022-08-17T09:53:44.839Z,100310.60
2022-08-17T09:57:05.716Z,100312.40
2022-08-17T09:59:54.841Z,100313.80
2022-08-17T10:02:40.504Z,100312.20
2022-08-17T10:05:21.997Z,100311.80
2022-08-17T10:08:16.980Z,100308.40
2022-08-17T10:11:50.357Z,100317.60
2022-08-17T10:14:43.819Z,100325.40
2022-08-17T10:17:42.894Z,100323.20
2022-08-17T10:20:39.465Z,100333.00
2022-08-17T10:23:41.168Z,100343.40
2022-08-17T10:26:16.966Z,100336.00
2022-08-17T10:29:12.532Z,100336.80
2022-08-17T10:31:48.569Z,100337.80
2022-08-17T10:34:44.364Z,100339.40
2022-08-17T10:37:21.066Z,100330.40
2022-08-17T10:40:39.919Z,100330.20
2022-08-17T10:43:25.507Z,100324.80
2022-08-17T10:46:31.055Z,100330.00
2022-08-17T10:49:21.141Z,100327.60
2022-08-17T10:51:52.978Z,100328.60
2022-08-17T10:55:05.987Z,100329.60
2022-08-17T10:57:44.904Z,100327.80
2022-08-17T11:00:25.627Z,100324.00
2022-08-17T11:02:57.839Z,100327.60
2022-08-17T11:05:58.899Z,100323.00
2022-08-17T11:08:38.736Z,100317.60
2022-08-17T11:11:56.376Z,100316.40
2022-08-17T11:14:47.608Z,100308.60
2022-08-17T11:17:44.200Z,100311.20
2022-08-17T11:20:38.450Z,100303.40
2022-08-17T11:23:38.467Z,100301.20
2022-08-17T11:26:26.587Z,100301.20
2022-08-17T11:29:05.195Z,100303.00
2022-08-17T11:31:58.223Z,100299.40
2022-08-17T11:34:30.251Z,100298.80
2022-08-17T11:37:19.046Z,100293.20
2022-08-17T11:40:20.220Z,100288.40
2022-08-17T11:43:21.362Z,100293.00
2022-08-17T11:46:22.593Z,100292.80
2022-08-17T11:49:11.695Z,100292.80
2022-08-17T11:52:01.617Z,100292.40
2022-08-17T11:54:37.447Z,100298.60
2022-08-17T11:57:27.046Z,100289.60
2022-08-17T12:00:06.490Z,100303.60
2022-08-17T12:02:48.312Z,100301.80
2022-08-17T12:05:26.031Z,100299.80
2022-08-17T12:08:15.201Z,100297.80
2022-08-17T12:11:04.739Z,100297.40
2022-08-17T12:13:45.196Z,100296.20
2022-08-17T12:16:20.126Z,100294.00
2022-08-17T12:19:02.404Z,100295.60
2022-08-17T12:21:51.275Z,100298.60
2022-08-17T12:24:31.455Z,100304.80
2022-08-17T12:27:04.450Z,100297.00
2022-08-17T12:29:35.676Z,100305.20
2022-08-17T12:32:16.573Z,100309.60
2022-08-17T12:34:47.311Z,100311.60
2022-08-17T12:37:31.072Z,100312.40
2022-08-17T12:40:16.848Z,100311.20
2022-08-17T12:42:57.602Z,100310.80
2022-08-17T12:45:39.728Z,100317.20
2022-08-17T12:48:21.529Z,100311.20
2022-08-17T12:50:51.621Z,100312.20
2022-08-17T12:53:29.832Z,100318.00
2022-08-17T12:56:00.325Z,100319.20
2022-08-17T12:58:37.764Z,100323.00
2022-08-17T13:01:15.071Z,100332.60
2022-08-17T13:03:49.459Z,100334.00
2022-08-17T13:06:35.747Z,100336.20
2022-08-17T13:09:35.743Z,100331.60
2022-08-17T13:12:08.546Z,100318.80
2022-08-17T13:14:36.447Z,100321.60
2022-08-17T13:17:11.029Z,100323.60
2022-08-17T13:19:50.476Z,100330.00
2022-08-17T13:22:24.656Z,100329.20
2022-08-17T13:24:58.187Z,100324.20
2022-08-17T13:27:29.607Z,100327.00
2022-08-17T13:30:03.970Z,100318.40
2022-08-17T13:32:43.967Z,100320.80
2022-08-17T13:35:32.801Z,100316.20
2022-08-17T13:38:16.938Z,100312.40
2022-08-17T13:40:50.932Z,100309.00
2022-08-17T13:43:49.614Z,100305.80
2022-08-17T13:46:28.531Z,100301.20
2022-08-17T13:49:09.871Z,100298.40
2022-08-17T13:51:47.529Z,100306.40
2022-08-17T13:54:31.466Z,100311.00
2022-08-17T13:57:19.576Z,100311.80
2022-08-17T13:59:52.976Z,100313.20
2022-08-17T14:02:21.825Z,100324.80
2022-08-17T14:04:50.254Z,100326.20
2022-08-17T14:07:26.529Z,100320.00
2022-08-17T14:10:00.763Z,100321.80
2022-08-17T14:12:33.138Z,100328.60
2022-08-17T14:15:02.209Z,100327.60
2022-08-17T14:17:36.356Z,100332.80
2022-08-17T14:20:10.961Z,100339.60
2022-08-17T14:22:44.772Z,100336.00
2022-08-17T14:25:16.250Z,100336.20
2022-08-17T14:27:53.426Z,100343.40
2022-08-17T14:30:26.742Z,100347.80
2022-08-17T14:32:58.522Z,100355.20
2022-08-17T14:35:28.225Z,100351.20
2022-08-17T14:37:56.677Z,100353.20
2022-08-17T14:40:25.484Z,100354.60
2022-08-17T14:42:55.979Z,100351.00
2022-08-17T14:45:32.892Z,100356.00
2022-08-17T14:48:04.490Z,100355.00
2022-08-17T14:50:35.512Z,100350.20
2022-08-17T14:53:06.011Z,100354.00
2022-08-17T14:55:34.589Z,100360.00
2022-08-17T14:58:04.000Z,100375.40
2022-08-17T15:00:33.146Z,100373.60
2022-08-17T15:03:02.398Z,100378.00
2022-08-17T15:05:35.390Z,100381.00
2022-08-17T15:08:05.561Z,100381.80
2022-08-17T15:10:34.480Z,100388.40
2022-08-17T15:13:02.539Z,100389.00
2022-08-17T15:15:31.204Z,100392.00
2022-08-17T15:17:59.827Z,100388.00
2022-08-17T15:20:29.821Z,100395.80
2022-08-17T15:22:59.326Z,100396.20
2022-08-17T15:25:31.949Z,100401.60
2022-08-17T15:28:01.370Z,100405.40
2022-08-17T15:30:31.091Z,100411.60
2022-08-17T15:33:01.168Z,100418.40
2022-08-17T15:35:33.053Z,100422.20
2022-08-17T15:38:11.139Z,100426.40
2022-08-17T15:40:44.734Z,100424.00
2022-08-17T15:43:27.253Z,100427.40
2022-08-17T15:46:01.492Z,100427.80
2022-08-17T15:48:41.300Z,100427.20
2022-08-17T15:51:21.430Z,100426.60
2022-08-17T15:54:00.022Z,100433.20
2022-08-17T15:56:32.755Z,100439.40
2022-08-17T15:59:01.159Z,100435.60
2022-08-17T16:02:11.987Z,100448.60
2022-08-17T16:04:30.233Z,100444.00
2022-08-17T16:07:00.248Z,100449.40
2022-08-17T16:09:28.515Z,100446.80
2022-08-17T16:11:56.655Z,100450.80
2022-08-17T16:14:32.540Z,100454.00
2022-08-17T16:17:04.810Z,100460.60
2022-08-17T16:19:52.595Z,100460.80
2022-08-17T16:22:44.687Z,100466.60
2022-08-17T16:25:21.779Z,100462.00
2022-08-17T16:27:53.613Z,100466.60
2022-08-17T16:30:25.471Z,100462.80
2022-08-17T16:32:55.529Z,100460.00
2022-08-17T16:35:26.812Z,100453.20
2022-08-17T16:37:58.392Z,100448.40
2022-08-17T16:40:29.643Z,100456.80
2022-08-17T16:43:01.686Z,100460.60
2022-08-17T16:45:36.581Z,100455.20
2022-08-17T16:48:04.873Z,100463.00
2022-08-17T16:50:33.822Z,100462.40
2022-08-17T16:53:16.278Z,100465.60
2022-08-17T16:55:46.073Z,100461.20
2022-08-17T16:58:15.587Z,100459.40
2022-08-17T17:00:45.239Z,100457.40
2022-08-17T17:03:21.123Z,100454.60
2022-08-17T17:06:08.729Z,100443.00
2022-08-17T17:09:01.915Z,100438.40
2022-08-17T17:11:54.619Z,100438.40
2022-08-17T17:14:28.303Z,100434.20
2022-08-17T17:17:05.336Z,100436.00
2022-08-17T17:20:00.717Z,100427.80
2022-08-17T17:22:48.671Z,100419.80
2022-08-17T17:25:26.369Z,100415.00
2022-08-17T17:28:02.948Z,100415.20
2022-08-17T17:30:53.656Z,100409.20
2022-08-17T17:33:36.203Z,100416.40
2022-08-17T17:36:17.044Z,100408.60
2022-08-17T17:38:52.833Z,100405.80
2022-08-17T17:41:37.082Z,100398.60
2022-08-17T17:44:18.015Z,100398.60
2022-08-17T17:46:56.606Z,100400.00
2022-08-17T17:49:33.280Z,100403.20
2022-08-17T17:52:41.091Z,100406.60
2022-08-17T17:55:33.651Z,100415.60
2022-08-17T17:58:28.557Z,100418.80
2022-08-17T18:01:53.835Z,100431.00
2022-08-17T18:04:42.754Z,100438.20
2022-08-17T18:07:16.130Z,100437.00
2022-08-17T18:10:01.430Z,100441.00
2022-08-17T18:12:46.349Z,100442.20
2022-08-17T18:15:29.786Z,100452.20
2022-08-17T18:18:16.031Z,100460.00
2022-08-17T18:20:53.779Z,100469.40
2022-08-17T18:23:28.055Z,100469.20
2022-08-17T18:25:58.803Z,100471.20
2022-08-17T18:28:39.794Z,100478.00
2022-08-17T18:31:20.513Z,100477.80
2022-08-17T18:33:53.364Z,100481.80
2022-08-17T18:36:33.501Z,100485.80
2022-08-17T18:39:10.284Z,100487.40
2022-08-17T18:41:48.794Z,100495.80
2022-08-17T18:44:25.368Z,100496.00
2022-08-17T18:47:28.514Z,100501.80
2022-08-17T18:50:27.381Z,100506.00
2022-08-17T18:53:30.164Z,100509.00
2022-08-17T18:56:27.918Z,100516.20
2022-08-17T18:59:11.962Z,100526.20
2022-08-17T19:02:16.059Z,100527.60
2022-08-17T19:05:07.789Z,100530.60
2022-08-17T19:07:44.262Z,100528.00
2022-08-17T19:10:24.228Z,100535.60
2022-08-17T19:13:00.741Z,100538.60
2022-08-17T19:16:14.671Z,100541.80
2022-08-17T19:19:19.990Z,100539.80
2022-08-17T19:21:59.100Z,100545.40
2022-08-17T19:24:30.663Z,100549.20
2022-08-17T19:27:19.642Z,100555.00
2022-08-17T19:30:07.913Z,100552.60
2022-08-17T19:32:38.041Z,100558.80
2022-08-17T19:35:13.596Z,100558.20
2022-08-17T19:38:18.470Z,100564.00
2022-08-17T19:41:12.121Z,100568.60
2022-08-17T19:43:51.292Z,100568.00
2022-08-17T19:47:00.848Z,100569.80
2022-08-17T19:49:41.279Z,100570.20
2022-08-17T19:52:18.538Z,100565.60
2022-08-17T19:55:32.949Z,100557.40
2022-08-17T19:58:21.418Z,100547.00
2022-08-17T20:00:54.535Z,100543.20
2022-08-17T20:03:34.809Z,100547.20
2022-08-17T20:06:15.065Z,100553.00
2022-08-17T20:09:05.973Z,100556.80
2022-08-17T20:11:45.264Z,100556.00
2022-08-17T20:14:35.938Z,100558.40
2022-08-17T20:17:06.126Z,100564.60
2022-08-17T20:19:53.254Z,100560.60
2022-08-17T20:22:31.738Z,100557.00
2022-08-17T20:25:33.303Z,100560.80
2022-08-17T20:28:22.891Z,100551.80
2022-08-17T20:30:52.567Z,100556.60
2022-08-17T20:33:37.647Z,100560.00
2022-08-17T20:36:11.290Z,100564.20
2022-08-17T20:38:48.935Z,100570.80
2022-08-17T20:41:24.817Z,100583.20
2022-08-17T20:43:55.647Z,100591.80
2022-08-17T20:46:51.597Z,100590.80
2022-08-17T20:49:39.179Z,100593.60
2022-08-17T20:52:16.608Z,100591.40
2022-08-17T20:54:48.949Z,100589.40
2022-08-17T20:57:32.190Z,100586.80
2022-08-17T21:00:33.387Z,100593.20
2022-08-17T21:03:26.952Z,100596.20
2022-08-17T21:06:16.927Z,100592.60
2022-08-17T21:08:53.939Z,100598.60
2022-08-17T21:11:56.737Z,100599.40
2022-08-17T21:14:34.367Z,100598.40
2022-08-17T21:17:33.683Z,100594.40
2022-08-17T21:20:11.459Z,100593.00
2022-08-17T21:23:13.272Z,100596.20
2022-08-17T21:25:55.046Z,100602.20
2022-08-17T21:28:38.017Z,100599.40
2022-08-17T21:32:03.919Z,100598.20
2022-08-17T21:35:06.479Z,100599.00
2022-08-17T21:37:46.389Z,100597.80
2022-08-17T21:40:18.222Z,100600.60
2022-08-17T21:42:53.831Z,100601.80
2022-08-17T21:45:30.551Z,100600.00
2022-08-17T21:48:17.401Z,100600.20
2022-08-17T21:51:03.816Z,100593.80
2022-08-17T21:53:50.093Z,100591.60
2022-08-17T21:56:29.320Z,100594.00
2022-08-17T21:59:28.126Z,100597.20
2022-08-17T22:02:09.768Z,100604.80
2022-08-17T22:04:44.043Z,100609.00
2022-08-17T22:07:14.295Z,100608.20
2022-08-17T22:09:49.752Z,100612.00
2022-08-17T22:12:20.025Z,100615.00
2022-08-17T22:15:00.582Z,100610.80
2022-08-17T22:17:35.961Z,100609.60
2022-08-17T22:20:15.839Z,100608.00
2022-08-17T22:23:05.176Z,100614.60
2022-08-17T22:25:38.252Z,100613.20
2022-08-17T22:28:10.052Z,100620.60
2022-08-17T22:30:59.263Z,100629.20
2022-08-17T22:33:32.884Z,100633.20
2022-08-17T22:36:33.698Z,100630.80
2022-08-17T22:39:26.123Z,100633.00
2022-08-17T22:41:59.749Z,100632.60
2022-08-17T22:44:37.868Z,100629.40
2022-08-17T22:47:14.530Z,100637.20
2022-08-17T22:50:05.197Z,100636.20
2022-08-17T22:53:01.088Z,100635.80
2022-08-17T22:55:51.941Z,100636.60
2022-08-17T22:58:43.378Z,100630.80
2022-08-17T23:01:31.579Z,100630.00
2022-08-17T23:04:06.949Z,100622.00
2022-08-17T23:06:38.078Z,100619.20
2022-08-17T23:09:07.405Z,100619.20
2022-08-17T23:11:49.900Z,100619.80
2022-08-17T23:14:20.754Z,100622.60
2022-08-17T23:16:52.866Z,100625.40
2022-08-17T23:19:22.219Z,100626.60
2022-08-17T23:21:52.699Z,100629.40
2022-08-17T23:24:27.049Z,100629.20
2022-08-17T23:26:57.416Z,100626.60
2022-08-17T23:29:29.263Z,100629.00
2022-08-17T23:32:00.134Z,100629.40
2022-08-17T23:34:28.691Z,100628.60
2022-08-17T23:36:56.623Z,100638.40
2022-08-17T23:39:27.560Z,100635.00
2022-08-17T23:42:05.158Z,100632.80
2022-08-17T23:44:33.820Z,100635.80
2022-08-17T23:47:04.668Z,100635.20
2022-08-17T23:49:32.601Z,100633.20
2022-08-17T23:52:04.428Z,100631.00
2022-08-17T23:54:41.559Z,100629.40
2022-08-17T23:57:20.376Z,100623.40
